sensor_id;sensor_type;location;lat;lon;timestamp;pressure;altitude;pressure_sealevel;temperature;humidity
13314;BME280;6725;48.112;11.604;2023-05-08T00:00:16;95416.28;;;15.89;100.00
13314;BME280;6725;48.112;11.604;2023-05-08T00:02:41;95419.69;;;15.81;100.00
13314;BME280;6725;48.112;11.604;2023-05-08T00:05:07;95425.97;;;15.81;100.00
13314;BME280;6725;48.112;11.604;2023-05-08T00:07:32;95423.56;;;15.83;100.00
13314;BME280;6725;48.112;11.604;2023-05-08T00:09:57;95421.88;;;15.73;100.00
13314;BME280;6725;48.112;11.604;2023-05-08T00:12:23;95428.78;;;15.65;100.00
13314;BME280;6725;48.112;11.604;2023-05-08T00:14:48;95435.94;;;15.63;100.00
13314;BME280;6725;48.112;11.604;2023-05-08T00:17:13;95429.63;;;15.62;100.00
13314;BME280;6725;48.112;11.604;2023-05-08T00:19:39;95443.09;;;15.60;100.00
13314;BME280;6725;48.112;11.604;2023-05-08T00:22:04;95440.59;;;15.50;100.00
13314;BME280;6725;48.112;11.604;2023-05-08T00:24:29;95451.16;;;15.51;100.00
13314;BME280;6725;48.112;11.604;2023-05-08T00:26:55;95459.44;;;15.51;100.00
13314;BME280;6725;48.112;11.604;2023-05-08T00:29:20;95466.91;;;15.51;100.00
13314;BME280;6725;48.112;11.604;2023-05-08T00:31:45;95465.53;;;15.43;100.00
13314;BME280;6725;48.112;11.604;2023-05-08T00:34:11;95474.38;;;15.34;100.00
13314;BME280;6725;48.112;11.604;2023-05-08T00:36:36;95466.56;;;15.33;100.00
13314;BME280;6725;48.112;11.604;2023-05-08T00:39:01;95464.25;;;15.31;100.00
13314;BME280;6725;48.112;11.604;2023-05-08T00:41:27;95475.00;;;15.26;100.00
13314;BME280;6725;48.112;11.604;2023-05-08T00:43:52;95468.31;;;15.27;100.00
13314;BME280;6725;48.112;11.604;2023-05-08T00:46:18;95458.94;;;15.24;100.00
13314;BME280;6725;48.112;11.604;2023-05-08T00:48:44;95458.84;;;15.28;100.00
13314;BME280;6725;48.112;11.604;2023-05-08T00:51:10;95468.91;;;15.18;100.00
13314;BME280;6725;48.112;11.604;2023-05-08T00:53:38;95462.19;;;15.19;100.00
13314;BME280;6725;48.112;11.604;2023-05-08T00:56:05;95465.47;;;15.14;100.00
13314;BME280;6725;48.112;11.604;2023-05-08T00:58:34;95466.41;;;15.08;100.00
13314;BME280;6725;48.112;11.604;2023-05-08T01:00:59;95456.28;;;15.05;100.00
13314;BME280;6725;48.112;11.604;2023-05-08T01:03:25;95458.66;;;15.03;100.00
13314;BME280;6725;48.112;11.604;2023-05-08T01:05:52;95453.34;;;14.96;100.00
13314;BME280;6725;48.112;11.604;2023-05-08T01:08:18;95455.06;;;14.90;100.00
13314;BME280;6725;48.112;11.604;2023-05-08T01:10:49;95455.06;;;14.90;100.00
13314;BME280;6725;48.112;11.604;2023-05-08T01:16:13;95450.16;;;14.81;100.00
13314;BME280;6725;48.112;11.604;2023-05-08T01:19:20;95451.13;;;14.75;100.00
13314;BME280;6725;48.112;11.604;2023-05-08T01:21:45;95453.75;;;14.78;100.00
13314;BME280;6725;48.112;11.604;2023-05-08T01:24:29;95452.22;;;14.77;100.00
13314;BME280;6725;48.112;11.604;2023-05-08T01:27:31;95452.72;;;14.72;100.00
13314;BME280;6725;48.112;11.604;2023-05-08T01:30:30;95460.81;;;14.79;100.00
13314;BME280;6725;48.112;11.604;2023-05-08T01:33:01;95456.88;;;14.80;100.00
13314;BME280;6725;48.112;11.604;2023-05-08T01:35:37;95455.25;;;14.83;100.00
13314;BME280;6725;48.112;11.604;2023-05-08T01:38:18;95455.47;;;14.72;100.00
13314;BME280;6725;48.112;11.604;2023-05-08T01:40:53;95458.22;;;14.72;100.00
13314;BME280;6725;48.112;11.604;2023-05-08T01:45:56;95462.69;;;14.66;100.00
13314;BME280;6725;48.112;11.604;2023-05-08T01:48:29;95457.19;;;14.66;100.00
13314;BME280;6725;48.112;11.604;2023-05-08T01:51:00;95459.09;;;14.69;100.00
13314;BME280;6725;48.112;11.604;2023-05-08T01:53:29;95457.78;;;14.74;100.00
13314;BME280;6725;48.112;11.604;2023-05-08T01:56:08;95460.69;;;14.67;100.00
13314;BME280;6725;48.112;11.604;2023-05-08T01:58:35;95460.09;;;14.59;100.00
13314;BME280;6725;48.112;11.604;2023-05-08T02:01:02;95458.72;;;14.67;100.00
13314;BME280;6725;48.112;11.604;2023-05-08T02:03:30;95447.56;;;14.58;100.00
13314;BME280;6725;48.112;11.604;2023-05-08T02:05:56;95447.78;;;14.48;100.00
13314;BME280;6725;48.112;11.604;2023-05-08T02:08:24;95450.06;;;14.53;100.00
13314;BME280;6725;48.112;11.604;2023-05-08T02:10:51;95440.47;;;14.41;100.00
13314;BME280;6725;48.112;11.604;2023-05-08T02:13:18;95442.28;;;14.32;100.00
13314;BME280;6725;48.112;11.604;2023-05-08T02:15:47;95438.94;;;14.21;100.00
13314;BME280;6725;48.112;11.604;2023-05-08T02:18:14;95447.59;;;14.19;100.00
13314;BME280;6725;48.112;11.604;2023-05-08T02:20:43;95456.00;;;14.12;100.00
13314;BME280;6725;48.112;11.604;2023-05-08T02:23:09;95444.16;;;14.15;100.00
13314;BME280;6725;48.112;11.604;2023-05-08T02:25:35;95453.47;;;14.21;100.00
13314;BME280;6725;48.112;11.604;2023-05-08T02:28:01;95449.88;;;14.24;100.00
13314;BME280;6725;48.112;11.604;2023-05-08T02:30:27;95452.28;;;14.22;100.00
13314;BME280;6725;48.112;11.604;2023-05-08T02:32:54;95447.50;;;14.26;100.00
13314;BME280;6725;48.112;11.604;2023-05-08T02:35:22;95446.91;;;14.15;100.00
13314;BME280;6725;48.112;11.604;2023-05-08T02:37:52;95449.25;;;13.97;100.00
13314;BME280;6725;48.112;11.604;2023-05-08T02:40:20;95434.31;;;13.98;100.00
13314;BME280;6725;48.112;11.604;2023-05-08T02:42:46;95453.41;;;13.86;100.00
13314;BME280;6725;48.112;11.604;2023-05-08T02:45:12;95440.88;;;14.04;100.00
13314;BME280;6725;48.112;11.604;2023-05-08T02:50:30;95452.41;;;13.96;100.00
13314;BME280;6725;48.112;11.604;2023-05-08T02:53:02;95453.34;;;13.89;100.00
13314;BME280;6725;48.112;11.604;2023-05-08T02:55:41;95460.78;;;13.69;100.00
13314;BME280;6725;48.112;11.604;2023-05-08T02:58:17;95456.91;;;13.67;100.00
13314;BME280;6725;48.112;11.604;2023-05-08T03:01:00;95456.13;;;13.66;100.00
13314;BME280;6725;48.112;11.604;2023-05-08T03:03:40;95449.88;;;13.66;100.00
13314;BME280;6725;48.112;11.604;2023-05-08T03:06:12;95445.00;;;13.73;100.00
13314;BME280;6725;48.112;11.604;2023-05-08T03:08:39;95441.94;;;13.71;100.00
13314;BME280;6725;48.112;11.604;2023-05-08T03:11:08;95450.44;;;13.57;100.00
13314;BME280;6725;48.112;11.604;2023-05-08T03:13:37;95437.50;;;13.58;100.00
13314;BME280;6725;48.112;11.604;2023-05-08T03:16:10;95427.41;;;13.51;100.00
13314;BME280;6725;48.112;11.604;2023-05-08T03:18:56;95417.13;;;13.55;100.00
13314;BME280;6725;48.112;11.604;2023-05-08T03:21:25;95417.38;;;13.64;100.00
13314;BME280;6725;48.112;11.604;2023-05-08T03:23:52;95417.56;;;13.73;100.00
13314;BME280;6725;48.112;11.604;2023-05-08T03:26:20;95423.94;;;13.70;100.00
13314;BME280;6725;48.112;11.604;2023-05-08T03:28:47;95417.28;;;13.68;100.00
13314;BME280;6725;48.112;11.604;2023-05-08T03:31:16;95418.44;;;13.70;100.00
13314;BME280;6725;48.112;11.604;2023-05-08T03:33:44;95419.63;;;13.69;100.00
13314;BME280;6725;48.112;11.604;2023-05-08T03:36:10;95411.66;;;13.55;100.00
13314;BME280;6725;48.112;11.604;2023-05-08T03:38:35;95409.19;;;13.61;100.00
13314;BME280;6725;48.112;11.604;2023-05-08T03:41:01;95414.63;;;13.64;100.00
13314;BME280;6725;48.112;11.604;2023-05-08T03:43:27;95407.03;;;13.52;100.00
13314;BME280;6725;48.112;11.604;2023-05-08T03:45:54;95412.31;;;13.63;100.00
13314;BME280;6725;48.112;11.604;2023-05-08T03:48:21;95408.53;;;13.33;100.00
13314;BME280;6725;48.112;11.604;2023-05-08T03:50:47;95400.47;;;13.46;100.00
13314;BME280;6725;48.112;11.604;2023-05-08T03:53:13;95413.81;;;13.44;100.00
13314;BME280;6725;48.112;11.604;2023-05-08T03:55:38;95416.97;;;13.23;100.00
13314;BME280;6725;48.112;11.604;2023-05-08T03:58:30;95421.91;;;13.32;100.00
13314;BME280;6725;48.112;11.604;2023-05-08T04:01:22;95412.06;;;13.34;100.00
13314;BME280;6725;48.112;11.604;2023-05-08T04:06:33;95427.47;;;13.28;100.00
13314;BME280;6725;48.112;11.604;2023-05-08T04:09:13;95428.53;;;13.34;100.00
13314;BME280;6725;48.112;11.604;2023-05-08T04:11:51;95426.97;;;13.33;100.00
13314;BME280;6725;48.112;11.604;2023-05-08T04:14:25;95421.63;;;13.26;100.00
13314;BME280;6725;48.112;11.604;2023-05-08T04:16:55;95432.66;;;13.22;100.00
13314;BME280;6725;48.112;11.604;2023-05-08T04:19:27;95422.34;;;13.30;100.00
13314;BME280;6725;48.112;11.604;2023-05-08T04:21:57;95418.31;;;13.34;100.00
13314;BME280;6725;48.112;11.604;2023-05-08T04:24:24;95418.97;;;13.42;100.00
13314;BME280;6725;48.112;11.604;2023-05-08T04:26:52;95427.81;;;13.30;100.00
13314;BME280;6725;48.112;11.604;2023-05-08T04:29:18;95417.94;;;13.13;100.00
13314;BME280;6725;48.112;11.604;2023-05-08T04:31:44;95408.16;;;13.12;100.00
13314;BME280;6725;48.112;11.604;2023-05-08T04:34:09;95419.34;;;13.21;100.00
13314;BME280;6725;48.112;11.604;2023-05-08T04:36:36;95413.66;;;13.12;100.00
13314;BME280;6725;48.112;11.604;2023-05-08T04:39:02;95417.09;;;13.16;100.00
13314;BME280;6725;48.112;11.604;2023-05-08T04:41:27;95416.56;;;13.01;100.00
13314;BME280;6725;48.112;11.604;2023-05-08T04:43:53;95411.63;;;12.93;100.00
13314;BME280;6725;48.112;11.604;2023-05-08T04:46:18;95388.31;;;13.04;100.00
13314;BME280;6725;48.112;11.604;2023-05-08T04:48:44;95380.25;;;12.94;100.00
13314;BME280;6725;48.112;11.604;2023-05-08T04:51:09;95365.69;;;13.00;100.00
13314;BME280;6725;48.112;11.604;2023-05-08T04:53:34;95358.66;;;12.99;100.00
13314;BME280;6725;48.112;11.604;2023-05-08T04:56:00;95338.22;;;13.04;100.00
13314;BME280;6725;48.112;11.604;2023-05-08T04:58:25;95336.94;;;12.85;100.00
13314;BME280;6725;48.112;11.604;2023-05-08T05:00:50;95332.38;;;12.79;100.00
13314;BME280;6725;48.112;11.604;2023-05-08T05:03:16;95319.13;;;12.74;100.00
13314;BME280;6725;48.112;11.604;2023-05-08T05:05:41;95291.97;;;12.83;100.00
13314;BME280;6725;48.112;11.604;2023-05-08T05:08:06;95277.00;;;12.87;100.00
13314;BME280;6725;48.112;11.604;2023-05-08T05:10:32;95266.03;;;12.68;100.00
13314;BME280;6725;48.112;11.604;2023-05-08T05:12:57;95240.16;;;12.69;100.00
13314;BME280;6725;48.112;11.604;2023-05-08T05:15:22;95196.88;;;12.80;100.00
13314;BME280;6725;48.112;11.604;2023-05-08T05:17:48;95195.13;;;12.70;100.00
13314;BME280;6725;48.112;11.604;2023-05-08T05:20:13;95104.53;;;12.61;100.00
13314;BME280;6725;48.112;11.604;2023-05-08T05:22:39;95043.75;;;12.66;100.00
13314;BME280;6725;48.112;11.604;2023-05-08T05:25:05;95018.13;;;12.56;100.00
13314;BME280;6725;48.112;11.604;2023-05-08T05:27:30;95000.31;;;12.48;100.00
13314;BME280;6725;48.112;11.604;2023-05-08T05:29:56;94977.63;;;12.48;100.00
13314;BME280;6725;48.112;11.604;2023-05-08T05:32:21;94968.53;;;12.35;100.00
13314;BME280;6725;48.112;11.604;2023-05-08T05:34:47;94947.06;;;12.33;100.00
13314;BME280;6725;48.112;11.604;2023-05-08T05:37:12;94947.47;;;12.32;100.00
13314;BME280;6725;48.112;11.604;2023-05-08T05:39:37;94933.22;;;12.40;100.00
13314;BME280;6725;48.112;11.604;2023-05-08T05:42:03;94928.78;;;12.27;100.00
13314;BME280;6725;48.112;11.604;2023-05-08T05:44:28;94921.78;;;12.26;100.00
13314;BME280;6725;48.112;11.604;2023-05-08T05:46:54;94901.25;;;12.34;100.00
13314;BME280;6725;48.112;11.604;2023-05-08T05:49:19;94893.56;;;12.29;100.00
13314;BME280;6725;48.112;11.604;2023-05-08T05:51:44;94799.13;;;12.21;100.00
13314;BME280;6725;48.112;11.604;2023-05-08T05:54:09;94797.13;;;12.37;100.00
13314;BME280;6725;48.112;11.604;2023-05-08T05:56:35;94761.13;;;12.39;100.00
13314;BME280;6725;48.112;11.604;2023-05-08T05:59:00;94777.53;;;12.39;100.00
13314;BME280;6725;48.112;11.604;2023-05-08T06:01:26;94784.16;;;12.25;100.00
13314;BME280;6725;48.112;11.604;2023-05-08T06:03:53;94791.06;;;12.30;100.00
13314;BME280;6725;48.112;11.604;2023-05-08T06:06:18;94802.69;;;12.34;100.00
13314;BME280;6725;48.112;11.604;2023-05-08T06:08:44;94796.88;;;12.48;100.00
13314;BME280;6725;48.112;11.604;2023-05-08T06:11:09;94824.59;;;12.34;100.00
13314;BME280;6725;48.112;11.604;2023-05-08T06:13:38;94830.41;;;12.52;100.00
13314;BME280;6725;48.112;11.604;2023-05-08T06:16:04;94837.00;;;12.70;100.00
13314;BME280;6725;48.112;11.604;2023-05-08T06:18:29;94884.16;;;12.62;100.00
13314;BME280;6725;48.112;11.604;2023-05-08T06:20:58;94921.91;;;12.54;100.00
13314;BME280;6725;48.112;11.604;2023-05-08T06:23:24;94972.13;;;12.32;100.00
13314;BME280;6725;48.112;11.604;2023-05-08T06:25:51;94982.91;;;12.39;100.00
13314;BME280;6725;48.112;11.604;2023-05-08T06:28:16;95005.00;;;12.48;100.00
13314;BME280;6725;48.112;11.604;2023-05-08T06:30:42;95022.13;;;12.52;100.00
13314;BME280;6725;48.112;11.604;2023-05-08T06:33:08;95034.81;;;12.46;100.00
13314;BME280;6725;48.112;11.604;2023-05-08T06:35:33;95054.66;;;12.50;100.00
13314;BME280;6725;48.112;11.604;2023-05-08T06:37:59;95066.75;;;12.52;100.00
13314;BME280;6725;48.112;11.604;2023-05-08T06:40:25;95069.19;;;12.47;100.00
13314;BME280;6725;48.112;11.604;2023-05-08T06:42:51;95072.81;;;12.60;100.00
13314;BME280;6725;48.112;11.604;2023-05-08T06:45:16;95074.38;;;12.61;100.00
13314;BME280;6725;48.112;11.604;2023-05-08T06:47:41;95083.47;;;12.74;100.00
13314;BME280;6725;48.112;11.604;2023-05-08T06:50:07;95092.66;;;12.48;100.00
13314;BME280;6725;48.112;11.604;2023-05-08T06:52:32;95093.34;;;12.52;100.00
13314;BME280;6725;48.112;11.604;2023-05-08T06:54:58;95083.63;;;12.67;100.00
13314;BME280;6725;48.112;11.604;2023-05-08T06:57:23;95096.00;;;12.75;100.00
13314;BME280;6725;48.112;11.604;2023-05-08T06:59:51;95114.97;;;12.66;100.00
13314;BME280;6725;48.112;11.604;2023-05-08T07:02:17;95123.03;;;12.92;100.00
13314;BME280;6725;48.112;11.604;2023-05-08T07:04:43;95149.16;;;12.97;100.00
13314;BME280;6725;48.112;11.604;2023-05-08T07:07:08;95159.34;;;13.16;100.00
13314;BME280;6725;48.112;11.604;2023-05-08T07:09:33;95187.66;;;13.29;100.00
13314;BME280;6725;48.112;11.604;2023-05-08T07:11:59;95207.88;;;13.71;100.00
13314;BME280;6725;48.112;11.604;2023-05-08T07:14:25;95287.00;;;13.56;100.00
13314;BME280;6725;48.112;11.604;2023-05-08T07:16:51;95331.19;;;13.42;100.00
13314;BME280;6725;48.112;11.604;2023-05-08T07:19:16;95357.13;;;13.57;100.00
13314;BME280;6725;48.112;11.604;2023-05-08T07:21:42;95388.84;;;13.97;100.00
13314;BME280;6725;48.112;11.604;2023-05-08T07:24:07;95443.06;;;13.74;100.00
13314;BME280;6725;48.112;11.604;2023-05-08T07:26:33;95472.75;;;13.98;100.00
13314;BME280;6725;48.112;11.604;2023-05-08T07:28:58;95496.56;;;14.24;100.00
13314;BME280;6725;48.112;11.604;2023-05-08T07:31:23;95527.72;;;14.37;100.00
13314;BME280;6725;48.112;11.604;2023-05-08T07:33:49;95542.19;;;14.57;100.00
13314;BME280;6725;48.112;11.604;2023-05-08T07:36:14;95580.44;;;14.32;100.00
13314;BME280;6725;48.112;11.604;2023-05-08T07:38:40;95597.53;;;13.97;100.00
13314;BME280;6725;48.112;11.604;2023-05-08T07:41:05;95590.84;;;13.75;100.00
13314;BME280;6725;48.112;11.604;2023-05-08T07:43:31;95571.91;;;14.04;100.00
13314;BME280;6725;48.112;11.604;2023-05-08T07:45:57;95593.47;;;13.82;100.00
13314;BME280;6725;48.112;11.604;2023-05-08T07:48:22;95592.16;;;13.44;100.00
13314;BME280;6725;48.112;11.604;2023-05-08T07:50:49;95581.91;;;13.71;100.00
13314;BME280;6725;48.112;11.604;2023-05-08T07:53:14;95589.25;;;13.78;100.00
13314;BME280;6725;48.112;11.604;2023-05-08T07:55:39;95594.72;;;14.43;100.00
13314;BME280;6725;48.112;11.604;2023-05-08T07:58:05;95599.34;;;14.66;100.00
13314;BME280;6725;48.112;11.604;2023-05-08T08:00:30;95612.31;;;15.20;100.00
13314;BME280;6725;48.112;11.604;2023-05-08T08:02:56;95646.09;;;14.85;100.00
13314;BME280;6725;48.112;11.604;2023-05-08T08:05:21;95661.50;;;15.18;100.00
13314;BME280;6725;48.112;11.604;2023-05-08T08:07:47;95670.28;;;15.29;100.00
13314;BME280;6725;48.112;11.604;2023-05-08T08:10:13;95674.88;;;15.16;100.00
13314;BME280;6725;48.112;11.604;2023-05-08T08:12:38;95679.84;;;15.60;100.00
13314;BME280;6725;48.112;11.604;2023-05-08T08:15:04;95698.97;;;15.83;100.00
13314;BME280;6725;48.112;11.604;2023-05-08T08:17:30;95700.44;;;15.17;100.00
13314;BME280;6725;48.112;11.604;2023-05-08T08:19:56;95703.88;;;15.40;100.00
13314;BME280;6725;48.112;11.604;2023-05-08T08:22:22;95701.09;;;15.76;100.00
13314;BME280;6725;48.112;11.604;2023-05-08T08:24:48;95705.97;;;15.52;100.00
13314;BME280;6725;48.112;11.604;2023-05-08T08:27:13;95702.16;;;16.30;100.00
13314;BME280;6725;48.112;11.604;2023-05-08T08:29:38;95717.56;;;16.27;100.00
13314;BME280;6725;48.112;11.604;2023-05-08T08:32:04;95722.81;;;15.90;100.00
13314;BME280;6725;48.112;11.604;2023-05-08T08:34:32;95726.34;;;16.38;100.00
13314;BME280;6725;48.112;11.604;2023-05-08T08:36:57;95736.72;;;16.51;100.00
13314;BME280;6725;48.112;11.604;2023-05-08T08:39:22;95733.78;;;16.09;100.00
13314;BME280;6725;48.112;11.604;2023-05-08T08:41:48;95736.94;;;16.24;100.00
13314;BME280;6725;48.112;11.604;2023-05-08T08:44:13;95736.13;;;17.16;100.00
13314;BME280;6725;48.112;11.604;2023-05-08T08:46:43;95748.72;;;16.89;100.00
13314;BME280;6725;48.112;11.604;2023-05-08T08:49:12;95743.34;;;16.98;100.00
13314;BME280;6725;48.112;11.604;2023-05-08T08:51:47;95742.25;;;17.36;100.00
13314;BME280;6725;48.112;11.604;2023-05-08T08:54:19;95736.78;;;17.49;100.00
13314;BME280;6725;48.112;11.604;2023-05-08T08:56:47;95740.56;;;18.17;100.00
13314;BME280;6725;48.112;11.604;2023-05-08T08:59:15;95737.19;;;18.72;100.00
13314;BME280;6725;48.112;11.604;2023-05-08T09:01:43;95737.28;;;19.37;100.00
13314;BME280;6725;48.112;11.604;2023-05-08T09:04:09;95737.63;;;19.05;100.00
13314;BME280;6725;48.112;11.604;2023-05-08T09:06:36;95746.25;;;19.07;100.00
13314;BME280;6725;48.112;11.604;2023-05-08T09:09:02;95743.47;;;19.07;100.00
13314;BME280;6725;48.112;11.604;2023-05-08T09:11:28;95746.34;;;18.82;100.00
13314;BME280;6725;48.112;11.604;2023-05-08T09:13:54;95743.56;;;19.59;100.00
13314;BME280;6725;48.112;11.604;2023-05-08T09:16:20;95737.59;;;19.91;100.00
13314;BME280;6725;48.112;11.604;2023-05-08T09:18:46;95738.22;;;19.95;100.00
13314;BME280;6725;48.112;11.604;2023-05-08T09:21:11;95746.63;;;19.30;100.00
13314;BME280;6725;48.112;11.604;2023-05-08T09:26:30;95754.69;;;19.03;100.00
13314;BME280;6725;48.112;11.604;2023-05-08T09:29:20;95749.25;;;19.00;100.00
13314;BME280;6725;48.112;11.604;2023-05-08T09:31:50;95745.53;;;19.28;100.00
13314;BME280;6725;48.112;11.604;2023-05-08T09:39:30;95744.72;;;20.98;100.00
13314;BME280;6725;48.112;11.604;2023-05-08T09:41:59;95755.06;;;20.40;100.00
13314;BME280;6725;48.112;11.604;2023-05-08T09:44:25;95746.50;;;20.65;100.00
13314;BME280;6725;48.112;11.604;2023-05-08T09:46:51;95752.84;;;20.84;100.00
13314;BME280;6725;48.112;11.604;2023-05-08T09:49:17;95747.06;;;20.42;100.00
13314;BME280;6725;48.112;11.604;2023-05-08T09:51:52;95757.84;;;21.25;100.00
13314;BME280;6725;48.112;11.604;2023-05-08T09:54:18;95745.19;;;21.15;100.00
13314;BME280;6725;48.112;11.604;2023-05-08T09:56:44;95749.00;;;21.71;100.00
13314;BME280;6725;48.112;11.604;2023-05-08T09:59:26;95746.25;;;22.22;100.00
13314;BME280;6725;48.112;11.604;2023-05-08T10:01:53;95739.09;;;22.63;100.00
13314;BME280;6725;48.112;11.604;2023-05-08T10:04:32;95749.63;;;21.84;100.00
13314;BME280;6725;48.112;11.604;2023-05-08T10:06:57;95745.47;;;22.54;100.00
13314;BME280;6725;48.112;11.604;2023-05-08T10:09:23;95742.69;;;22.87;100.00
13314;BME280;6725;48.112;11.604;2023-05-08T10:11:49;95739.94;;;23.25;100.00
13314;BME280;6725;48.112;11.604;2023-05-08T10:14:16;95735.06;;;22.87;100.00
13314;BME280;6725;48.112;11.604;2023-05-08T10:16:43;95746.84;;;21.75;100.00
13314;BME280;6725;48.112;11.604;2023-05-08T10:19:14;95742.38;;;21.78;100.00
13314;BME280;6725;48.112;11.604;2023-05-08T10:21:44;95745.03;;;21.09;100.00
13314;BME280;6725;48.112;11.604;2023-05-08T10:24:18;95746.75;;;21.16;100.00
13314;BME280;6725;48.112;11.604;2023-05-08T10:26:53;95747.44;;;20.71;100.00
13314;BME280;6725;48.112;11.604;2023-05-08T10:29:26;95750.78;;;20.48;100.00
13314;BME280;6725;48.112;11.604;2023-05-08T10:31:53;95752.66;;;20.12;100.00
13314;BME280;6725;48.112;11.604;2023-05-08T10:34:21;95740.72;;;20.33;100.00
13314;BME280;6725;48.112;11.604;2023-05-08T10:36:47;95746.78;;;20.58;100.00
13314;BME280;6725;48.112;11.604;2023-05-08T10:39:16;95744.28;;;20.33;100.00
13314;BME280;6725;48.112;11.604;2023-05-08T10:41:42;95738.22;;;20.26;100.00
13314;BME280;6725;48.112;11.604;2023-05-08T10:44:08;95743.66;;;20.38;100.00
13314;BME280;6725;48.112;11.604;2023-05-08T10:46:54;95738.53;;;21.30;100.00
13314;BME280;6725;48.112;11.604;2023-05-08T10:49:34;95737.28;;;20.77;100.00
13314;BME280;6725;48.112;11.604;2023-05-08T10:55:19;95736.19;;;20.17;100.00
13314;BME280;6725;48.112;11.604;2023-05-08T11:03:22;95732.91;;;19.79;100.00
13314;BME280;6725;48.112;11.604;2023-05-08T11:05:49;95730.00;;;20.62;100.00
13314;BME280;6725;48.112;11.604;2023-05-08T11:08:20;95732.66;;;19.95;100.00
13314;BME280;6725;48.112;11.604;2023-05-08T11:13:40;95728.25;;;20.46;100.00
13314;BME280;6725;48.112;11.604;2023-05-08T11:16:07;95725.59;;;21.09;100.00
13314;BME280;6725;48.112;11.604;2023-05-08T11:18:36;95728.50;;;20.97;100.00
13314;BME280;6725;48.112;11.604;2023-05-08T11:21:03;95741.28;;;19.36;100.00
13314;BME280;6725;48.112;11.604;2023-05-08T11:23:32;95727.41;;;20.19;100.00
13314;BME280;6725;48.112;11.604;2023-05-08T11:28:54;95727.84;;;19.13;100.00
13314;BME280;6725;48.112;11.604;2023-05-08T11:31:20;95732.13;;;20.09;100.00
13314;BME280;6725;48.112;11.604;2023-05-08T11:33:46;95719.59;;;20.35;100.00
13314;BME280;6725;48.112;11.604;2023-05-08T11:36:16;95720.91;;;19.30;100.00
13314;BME280;6725;48.112;11.604;2023-05-08T11:39:09;95719.94;;;19.67;100.00
13314;BME280;6725;48.112;11.604;2023-05-08T11:41:39;95717.47;;;19.69;100.00
13314;BME280;6725;48.112;11.604;2023-05-08T11:44:08;95715.22;;;19.86;100.00
13314;BME280;6725;48.112;11.604;2023-05-08T11:46:52;95724.69;;;19.97;100.00
13314;BME280;6725;48.112;11.604;2023-05-08T11:49:20;95722.06;;;20.33;100.00
13314;BME280;6725;48.112;11.604;2023-05-08T11:51:49;95722.72;;;19.76;100.00
13314;BME280;6725;48.112;11.604;2023-05-08T11:54:19;95724.75;;;19.54;100.00
13314;BME280;6725;48.112;11.604;2023-05-08T11:56:45;95723.06;;;19.78;100.00
13314;BME280;6725;48.112;11.604;2023-05-08T11:59:11;95721.59;;;19.95;100.00
13314;BME280;6725;48.112;11.604;2023-05-08T12:01:37;95719.97;;;19.76;100.00
13314;BME280;6725;48.112;11.604;2023-05-08T12:04:10;95721.38;;;20.11;100.00
13314;BME280;6725;48.112;11.604;2023-05-08T12:06:37;95721.94;;;20.46;100.00
13314;BME280;6725;48.112;11.604;2023-05-08T12:09:12;95726.31;;;19.55;100.00
13314;BME280;6725;48.112;11.604;2023-05-08T12:11:38;95733.41;;;19.56;100.00
13314;BME280;6725;48.112;11.604;2023-05-08T12:14:05;95735.50;;;19.52;100.00
13314;BME280;6725;48.112;11.604;2023-05-08T12:16:34;95739.78;;;19.44;100.00
13314;BME280;6725;48.112;11.604;2023-05-08T12:18:59;95726.88;;;19.07;100.00
13314;BME280;6725;48.112;11.604;2023-05-08T12:21:25;95734.91;;;19.26;100.00
13314;BME280;6725;48.112;11.604;2023-05-08T12:23:53;95735.47;;;19.43;100.00
13314;BME280;6725;48.112;11.604;2023-05-08T12:26:19;95732.16;;;19.14;100.00
13314;BME280;6725;48.112;11.604;2023-05-08T12:28:45;95734.66;;;19.21;100.00
13314;BME280;6725;48.112;11.604;2023-05-08T12:31:12;95730.28;;;18.89;100.00
13314;BME280;6725;48.112;11.604;2023-05-08T12:33:38;95729.31;;;18.71;100.00
13314;BME280;6725;48.112;11.604;2023-05-08T12:36:04;95730.78;;;18.97;100.00
13314;BME280;6725;48.112;11.604;2023-05-08T12:38:30;95727.75;;;19.38;100.00
13314;BME280;6725;48.112;11.604;2023-05-08T12:40:56;95724.63;;;19.58;100.00
13314;BME280;6725;48.112;11.604;2023-05-08T12:43:30;95721.50;;;19.77;100.00
13314;BME280;6725;48.112;11.604;2023-05-08T12:45:56;95732.84;;;18.84;100.00
13314;BME280;6725;48.112;11.604;2023-05-08T12:48:21;95731.75;;;19.03;100.00
13314;BME280;6725;48.112;11.604;2023-05-08T12:50:46;95722.28;;;18.91;100.00
13314;BME280;6725;48.112;11.604;2023-05-08T12:53:13;95730.88;;;18.72;100.00
13314;BME280;6725;48.112;11.604;2023-05-08T12:55:52;95721.16;;;19.23;100.00
13314;BME280;6725;48.112;11.604;2023-05-08T12:58:18;95729.00;;;19.03;100.00
13314;BME280;6725;48.112;11.604;2023-05-08T13:00:49;95724.59;;;18.93;100.00
13314;BME280;6725;48.112;11.604;2023-05-08T13:03:23;95720.72;;;18.90;100.00
13314;BME280;6725;48.112;11.604;2023-05-08T13:05:50;95722.25;;;19.47;100.00
13314;BME280;6725;48.112;11.604;2023-05-08T13:08:16;95724.44;;;19.09;100.00
13314;BME280;6725;48.112;11.604;2023-05-08T13:10:49;95719.06;;;18.93;100.00
13314;BME280;6725;48.112;11.604;2023-05-08T13:13:19;95723.84;;;19.14;100.00
13314;BME280;6725;48.112;11.604;2023-05-08T13:15:46;95711.78;;;18.52;100.00
13314;BME280;6725;48.112;11.604;2023-05-08T13:18:12;95717.03;;;19.06;100.00
13314;BME280;6725;48.112;11.604;2023-05-08T13:20:38;95715.06;;;19.28;100.00
13314;BME280;6725;48.112;11.604;2023-05-08T13:23:04;95715.69;;;18.76;100.00
13314;BME280;6725;48.112;11.604;2023-05-08T13:25:30;95723.44;;;18.35;100.00
13314;BME280;6725;48.112;11.604;2023-05-08T13:27:57;95720.94;;;18.62;100.00